sensor_id;sensor_type;location;lat;lon;timestamp;pressure;altitude;pressure_sealevel;temperature;humidity
21520;BME280;10921;53.614;9.882;2022-07-10T00:02:18;101989.16;;;16.24;69.62
21520;BME280;10921;53.614;9.882;2022-07-10T00:04:45;101982.75;;;16.25;69.38
21520;BME280;10921;53.614;9.882;2022-07-10T00:07:11;101982.91;;;16.24;69.48
21520;BME280;10921;53.614;9.882;2022-07-10T00:09:38;101989.84;;;16.26;69.65
21520;BME280;10921;53.614;9.882;2022-07-10T00:12:04;101985.47;;;16.25;69.66
21520;BME280;10921;53.614;9.882;2022-07-10T00:14:31;101989.00;;;16.26;69.68
21520;BME280;10921;53.614;9.882;2022-07-10T00:16:58;101990.84;;;16.25;69.60
21520;BME280;10921;53.614;9.882;2022-07-10T00:19:25;101992.53;;;16.26;69.51
21520;BME280;10921;53.614;9.882;2022-07-10T00:21:51;101995.22;;;16.26;69.66
21520;BME280;10921;53.614;9.882;2022-07-10T00:24:18;101994.25;;;16.27;69.64
21520;BME280;10921;53.614;9.882;2022-07-10T00:26:44;101984.31;;;16.28;69.55
21520;BME280;10921;53.614;9.882;2022-07-10T00:29:10;101992.38;;;16.28;69.52
21520;BME280;10921;53.614;9.882;2022-07-10T00:31:37;101977.09;;;16.28;69.63
21520;BME280;10921;53.614;9.882;2022-07-10T00:34:03;101973.53;;;16.28;69.40
21520;BME280;10921;53.614;9.882;2022-07-10T00:36:30;101976.22;;;16.28;69.44
21520;BME280;10921;53.614;9.882;2022-07-10T00:38:56;101980.78;;;16.27;69.46
21520;BME280;10921;53.614;9.882;2022-07-10T00:41:23;101969.91;;;16.19;69.46
21520;BME280;10921;53.614;9.882;2022-07-10T00:44:00;101971.13;;;16.25;69.99
21520;BME280;10921;53.614;9.882;2022-07-10T00:46:28;101973.44;;;16.19;69.63
21520;BME280;10921;53.614;9.882;2022-07-10T00:48:55;101979.00;;;16.18;69.64
21520;BME280;10921;53.614;9.882;2022-07-10T00:51:25;101969.38;;;16.15;70.14
21520;BME280;10921;53.614;9.882;2022-07-10T00:53:52;101972.53;;;16.29;68.33
21520;BME280;10921;53.614;9.882;2022-07-10T00:56:25;101973.06;;;16.14;69.64
21520;BME280;10921;53.614;9.882;2022-07-10T00:58:52;101972.94;;;16.06;69.98
21520;BME280;10921;53.614;9.882;2022-07-10T01:01:19;101970.41;;;16.05;69.94
21520;BME280;10921;53.614;9.882;2022-07-10T01:03:46;101970.56;;;16.03;70.16
21520;BME280;10921;53.614;9.882;2022-07-10T01:06:14;101973.41;;;16.02;70.34
21520;BME280;10921;53.614;9.882;2022-07-10T01:08:41;101963.63;;;16.01;70.07
21520;BME280;10921;53.614;9.882;2022-07-10T01:11:09;101973.41;;;16.02;69.93
21520;BME280;10921;53.614;9.882;2022-07-10T01:13:37;101960.81;;;16.02;69.92
21520;BME280;10921;53.614;9.882;2022-07-10T01:16:03;101965.34;;;16.02;70.02
21520;BME280;10921;53.614;9.882;2022-07-10T01:18:30;101959.94;;;16.02;69.70
21520;BME280;10921;53.614;9.882;2022-07-10T01:20:57;101957.25;;;16.02;69.65
21520;BME280;10921;53.614;9.882;2022-07-10T01:23:23;101957.25;;;16.02;69.48
21520;BME280;10921;53.614;9.882;2022-07-10T01:25:50;101960.94;;;16.01;69.26
21520;BME280;10921;53.614;9.882;2022-07-10T01:28:17;101958.41;;;15.99;69.15
21520;BME280;10921;53.614;9.882;2022-07-10T01:30:46;101960.25;;;15.99;69.00
21520;BME280;10921;53.614;9.882;2022-07-10T01:33:13;101954.31;;;15.95;69.19
21520;BME280;10921;53.614;9.882;2022-07-10T01:35:40;101949.06;;;15.94;69.47
21520;BME280;10921;53.614;9.882;2022-07-10T01:38:07;101937.59;;;15.92;69.54
21520;BME280;10921;53.614;9.882;2022-07-10T01:40:33;101951.38;;;15.89;69.84
21520;BME280;10921;53.614;9.882;2022-07-10T01:43:00;101950.69;;;15.87;69.63
21520;BME280;10921;53.614;9.882;2022-07-10T01:45:26;101949.97;;;15.85;70.16
21520;BME280;10921;53.614;9.882;2022-07-10T01:47:53;101945.03;;;15.80;70.27
21520;BME280;10921;53.614;9.882;2022-07-10T01:50:19;101947.72;;;15.80;70.66
21520;BME280;10921;53.614;9.882;2022-07-10T01:52:46;101940.78;;;15.77;71.00
21520;BME280;10921;53.614;9.882;2022-07-10T01:55:12;101944.31;;;15.78;70.97
21520;BME280;10921;53.614;9.882;2022-07-10T01:57:39;101939.78;;;15.78;71.06
21520;BME280;10921;53.614;9.882;2022-07-10T02:00:06;101939.94;;;15.77;71.17
21520;BME280;10921;53.614;9.882;2022-07-10T02:02:34;101946.16;;;15.77;71.21
21520;BME280;10921;53.614;9.882;2022-07-10T02:05:00;101938.94;;;15.78;71.11
21520;BME280;10921;53.614;9.882;2022-07-10T02:07:27;101932.72;;;15.77;71.17
21520;BME280;10921;53.614;9.882;2022-07-10T02:09:53;101932.56;;;15.79;71.15
21520;BME280;10921;53.614;9.882;2022-07-10T02:12:20;101925.34;;;15.79;71.17
21520;BME280;10921;53.614;9.882;2022-07-10T02:14:47;101927.19;;;15.79;71.02
21520;BME280;10921;53.614;9.882;2022-07-10T02:17:13;101924.34;;;15.80;71.23
21520;BME280;10921;53.614;9.882;2022-07-10T02:19:42;101917.25;;;15.79;71.15
21520;BME280;10921;53.614;9.882;2022-07-10T02:22:08;101921.66;;;15.80;71.13
21520;BME280;10921;53.614;9.882;2022-07-10T02:24:35;101917.13;;;15.81;71.09
21520;BME280;10921;53.614;9.882;2022-07-10T02:27:01;101918.13;;;15.80;70.89
21520;BME280;10921;53.614;9.882;2022-07-10T02:29:28;101918.81;;;15.82;70.98
21520;BME280;10921;53.614;9.882;2022-07-10T02:31:54;101925.34;;;15.79;70.95
21520;BME280;10921;53.614;9.882;2022-07-10T02:34:21;101932.72;;;15.77;70.62
21520;BME280;10921;53.614;9.882;2022-07-10T02:36:47;101928.78;;;15.72;70.91
21520;BME280;10921;53.614;9.882;2022-07-10T02:39:14;101919.16;;;15.69;71.31
21520;BME280;10921;53.614;9.882;2022-07-10T02:41:40;101929.22;;;15.67;71.51
21520;BME280;10921;53.614;9.882;2022-07-10T02:44:07;101920.59;;;15.64;71.72
21520;BME280;10921;53.614;9.882;2022-07-10T02:46:34;101919.03;;;15.61;72.03
21520;BME280;10921;53.614;9.882;2022-07-10T02:49:00;101925.56;;;15.59;72.23
21520;BME280;10921;53.614;9.882;2022-07-10T02:51:27;101922.06;;;15.58;72.51
21520;BME280;10921;53.614;9.882;2022-07-10T02:53:53;101922.88;;;15.59;72.45
21520;BME280;10921;53.614;9.882;2022-07-10T02:56:20;101922.88;;;15.59;72.69
21520;BME280;10921;53.614;9.882;2022-07-10T02:58:46;101917.50;;;15.59;72.84
21520;BME280;10921;53.614;9.882;2022-07-10T03:01:13;101930.13;;;15.58;73.10
21520;BME280;10921;53.614;9.882;2022-07-10T03:03:39;101925.56;;;15.59;73.08
21520;BME280;10921;53.614;9.882;2022-07-10T03:06:06;101923.31;;;15.54;73.06
21520;BME280;10921;53.614;9.882;2022-07-10T03:08:32;101925.41;;;15.60;73.06
21520;BME280;10921;53.614;9.882;2022-07-10T03:10:59;101922.72;;;15.60;72.97
21520;BME280;10921;53.614;9.882;2022-07-10T03:13:26;101913.66;;;15.61;72.94
21520;BME280;10921;53.614;9.882;2022-07-10T03:15:55;101917.06;;;15.63;72.85
21520;BME280;10921;53.614;9.882;2022-07-10T03:18:22;101917.06;;;15.63;72.65
21520;BME280;10921;53.614;9.882;2022-07-10T03:20:48;101917.91;;;15.64;72.50
21520;BME280;10921;53.614;9.882;2022-07-10T03:23:15;101917.06;;;15.63;72.39
21520;BME280;10921;53.614;9.882;2022-07-10T03:25:41;101919.59;;;15.65;72.35
21520;BME280;10921;53.614;9.882;2022-07-10T03:28:08;101918.75;;;15.64;72.32
21520;BME280;10921;53.614;9.882;2022-07-10T03:30:34;101921.31;;;15.66;72.24
21520;BME280;10921;53.614;9.882;2022-07-10T03:33:01;101926.41;;;15.69;72.00
21520;BME280;10921;53.614;9.882;2022-07-10T03:35:30;101919.47;;;15.66;71.63
21520;BME280;10921;53.614;9.882;2022-07-10T03:37:57;101920.16;;;15.68;71.81
21520;BME280;10921;53.614;9.882;2022-07-10T03:40:24;101918.19;;;15.70;71.31
21520;BME280;10921;53.614;9.882;2022-07-10T03:42:52;101914.50;;;15.71;71.05
21520;BME280;10921;53.614;9.882;2022-07-10T03:45:18;101916.84;;;15.74;70.99
21520;BME280;10921;53.614;9.882;2022-07-10T03:47:44;101916.56;;;15.77;70.79
21520;BME280;10921;53.614;9.882;2022-07-10T03:50:11;101922.66;;;15.79;70.48
21520;BME280;10921;53.614;9.882;2022-07-10T03:52:37;101917.97;;;15.81;69.83
21520;BME280;10921;53.614;9.882;2022-07-10T03:55:04;101921.38;;;15.83;69.66
21520;BME280;10921;53.614;9.882;2022-07-10T03:57:31;101910.16;;;15.88;69.27
21520;BME280;10921;53.614;9.882;2022-07-10T04:00:16;101909.84;;;15.91;69.09
21520;BME280;10921;53.614;9.882;2022-07-10T04:02:42;101902.16;;;15.96;68.12
21520;BME280;10921;53.614;9.882;2022-07-10T04:05:09;101906.25;;;16.00;67.39
21520;BME280;10921;53.614;9.882;2022-07-10T04:07:36;101904.13;;;16.04;66.62
21520;BME280;10921;53.614;9.882;2022-07-10T04:10:03;101906.19;;;16.10;65.88
21520;BME280;10921;53.614;9.882;2022-07-10T04:12:31;101899.66;;;16.12;65.58
21520;BME280;10921;53.614;9.882;2022-07-10T04:14:58;101889.13;;;16.19;65.17
21520;BME280;10921;53.614;9.882;2022-07-10T04:17:24;101899.44;;;16.24;65.04
21520;BME280;10921;53.614;9.882;2022-07-10T04:19:50;101901.97;;;16.25;64.71
21520;BME280;10921;53.614;9.882;2022-07-10T04:22:17;101904.75;;;16.33;64.56
21520;BME280;10921;53.614;9.882;2022-07-10T04:24:43;101895.34;;;16.37;64.44
21520;BME280;10921;53.614;9.882;2022-07-10T04:27:10;101891.50;;;16.40;64.03
21520;BME280;10921;53.614;9.882;2022-07-10T04:29:36;101895.44;;;16.45;63.95
21520;BME280;10921;53.614;9.882;2022-07-10T04:32:03;101895.44;;;16.45;63.49
21520;BME280;10921;53.614;9.882;2022-07-10T04:34:30;101886.34;;;16.46;63.43
21520;BME280;10921;53.614;9.882;2022-07-10T04:36:56;101893.59;;;16.46;63.34
21520;BME280;10921;53.614;9.882;2022-07-10T04:39:23;101897.44;;;16.43;62.98
21520;BME280;10921;53.614;9.882;2022-07-10T04:41:49;101895.03;;;16.40;63.43
21520;BME280;10921;53.614;9.882;2022-07-10T04:44:16;101894.34;;;16.38;63.58
21520;BME280;10921;53.614;9.882;2022-07-10T04:46:42;101893.34;;;16.39;63.52
21520;BME280;10921;53.614;9.882;2022-07-10T04:49:09;101892.66;;;16.37;63.52
21520;BME280;10921;53.614;9.882;2022-07-10T04:51:35;101904.97;;;16.40;63.66
21520;BME280;10921;53.614;9.882;2022-07-10T04:54:02;101901.13;;;16.42;63.53
21520;BME280;10921;53.614;9.882;2022-07-10T04:56:28;101904.38;;;16.46;63.63
21520;BME280;10921;53.614;9.882;2022-07-10T04:58:55;101911.97;;;16.50;63.45
21520;BME280;10921;53.614;9.882;2022-07-10T05:01:21;101916.06;;;16.54;63.31
21520;BME280;10921;53.614;9.882;2022-07-10T05:03:48;101905.28;;;16.54;62.83
21520;BME280;10921;53.614;9.882;2022-07-10T05:06:14;101912.66;;;16.52;62.50
21520;BME280;10921;53.614;9.882;2022-07-10T05:08:41;101910.13;;;16.51;62.45
21520;BME280;10921;53.614;9.882;2022-07-10T05:11:08;101914.00;;;16.48;62.39
21520;BME280;10921;53.614;9.882;2022-07-10T05:13:34;101918.84;;;16.45;62.63
21520;BME280;10921;53.614;9.882;2022-07-10T05:16:01;101913.44;;;16.45;62.78
21520;BME280;10921;53.614;9.882;2022-07-10T05:18:27;101920.53;;;16.46;62.73
21520;BME280;10921;53.614;9.882;2022-07-10T05:20:54;101919.38;;;16.48;62.29
21520;BME280;10921;53.614;9.882;2022-07-10T05:23:21;101931.53;;;16.52;62.09
21520;BME280;10921;53.614;9.882;2022-07-10T05:25:48;101921.84;;;16.60;61.88
21520;BME280;10921;53.614;9.882;2022-07-10T05:28:14;101929.31;;;16.66;62.06
21520;BME280;10921;53.614;9.882;2022-07-10T05:30:41;101919.09;;;16.69;61.69
21520;BME280;10921;53.614;9.882;2022-07-10T05:33:08;101916.63;;;16.76;61.52
21520;BME280;10921;53.614;9.882;2022-07-10T05:35:34;101928.63;;;16.81;61.49
21520;BME280;10921;53.614;9.882;2022-07-10T05:38:01;101922.06;;;16.84;60.78
21520;BME280;10921;53.614;9.882;2022-07-10T05:40:28;101922.59;;;16.87;60.40
21520;BME280;10921;53.614;9.882;2022-07-10T05:42:54;101913.06;;;16.93;60.59
21520;BME280;10921;53.614;9.882;2022-07-10T05:45:21;101912.41;;;16.99;60.19
21520;BME280;10921;53.614;9.882;2022-07-10T05:47:47;101922.44;;;17.07;60.15
21520;BME280;10921;53.614;9.882;2022-07-10T05:50:13;101922.47;;;17.15;59.70
21520;BME280;10921;53.614;9.882;2022-07-10T05:52:40;101922.69;;;17.21;59.31
21520;BME280;10921;53.614;9.882;2022-07-10T05:55:07;101929.13;;;17.29;58.75
21520;BME280;10921;53.614;9.882;2022-07-10T05:57:35;101917.72;;;17.35;59.05
21520;BME280;10921;53.614;9.882;2022-07-10T06:00:04;101922.66;;;17.47;58.73
21520;BME280;10921;53.614;9.882;2022-07-10T06:02:31;101919.19;;;17.55;58.35
21520;BME280;10921;53.614;9.882;2022-07-10T06:04:58;101926.03;;;17.67;58.28
21520;BME280;10921;53.614;9.882;2022-07-10T06:07:25;101926.03;;;17.75;57.18
21520;BME280;10921;53.614;9.882;2022-07-10T06:09:51;101928.41;;;17.78;56.52
21520;BME280;10921;53.614;9.882;2022-07-10T06:12:18;101927.09;;;17.82;56.84
21520;BME280;10921;53.614;9.882;2022-07-10T06:14:44;101929.31;;;17.87;56.69
21520;BME280;10921;53.614;9.882;2022-07-10T06:17:11;101930.66;;;17.91;56.44
21520;BME280;10921;53.614;9.882;2022-07-10T06:19:37;101938.28;;;17.96;56.83
21520;BME280;10921;53.614;9.882;2022-07-10T06:22:04;101935.44;;;17.97;56.57
21520;BME280;10921;53.614;9.882;2022-07-10T06:24:49;101932.25;;;18.02;56.89
21520;BME280;10921;53.614;9.882;2022-07-10T06:27:16;101927.16;;;18.07;56.39
21520;BME280;10921;53.614;9.882;2022-07-10T06:29:42;101941.72;;;18.14;56.21
21520;BME280;10921;53.614;9.882;2022-07-10T06:32:09;101932.78;;;18.13;55.10
21520;BME280;10921;53.614;9.882;2022-07-10T06:34:35;101934.63;;;18.13;55.12
21520;BME280;10921;53.614;9.882;2022-07-10T06:37:02;101943.06;;;18.10;55.33
21520;BME280;10921;53.614;9.882;2022-07-10T06:39:32;101926.16;;;18.08;56.15
21520;BME280;10921;53.614;9.882;2022-07-10T06:42:03;101947.25;;;18.04;55.86
21520;BME280;10921;53.614;9.882;2022-07-10T06:44:30;101947.41;;;18.03;56.10
21520;BME280;10921;53.614;9.882;2022-07-10T06:46:57;101942.69;;;18.05;56.47
21520;BME280;10921;53.614;9.882;2022-07-10T06:49:43;101931.25;;;18.11;55.75
21520;BME280;10921;53.614;9.882;2022-07-10T06:52:11;101948.13;;;18.13;55.51
21520;BME280;10921;53.614;9.882;2022-07-10T06:54:38;101936.50;;;18.12;56.16
21520;BME280;10921;53.614;9.882;2022-07-10T06:57:05;101937.34;;;18.21;55.87
21520;BME280;10921;53.614;9.882;2022-07-10T06:59:32;101936.16;;;18.23;55.12
21520;BME280;10921;53.614;9.882;2022-07-10T07:01:59;101923.69;;;18.31;55.53
21520;BME280;10921;53.614;9.882;2022-07-10T07:04:26;101932.00;;;18.45;55.00
21520;BME280;10921;53.614;9.882;2022-07-10T07:06:52;101939.94;;;18.55;55.30
21520;BME280;10921;53.614;9.882;2022-07-10T07:09:19;101928.50;;;18.61;54.00
21520;BME280;10921;53.614;9.882;2022-07-10T07:11:45;101937.63;;;18.68;53.34
21520;BME280;10921;53.614;9.882;2022-07-10T07:14:12;101929.69;;;18.75;52.88
21520;BME280;10921;53.614;9.882;2022-07-10T07:16:38;101929.00;;;18.81;52.89
21520;BME280;10921;53.614;9.882;2022-07-10T07:19:09;101931.03;;;18.87;53.24
21520;BME280;10921;53.614;9.882;2022-07-10T07:21:44;101921.06;;;18.95;52.05
21520;BME280;10921;53.614;9.882;2022-07-10T07:24:29;101908.22;;;18.97;51.85
21520;BME280;10921;53.614;9.882;2022-07-10T07:26:56;101918.53;;;19.02;51.68
21520;BME280;10921;53.614;9.882;2022-07-10T07:29:22;101918.53;;;19.02;51.75
21520;BME280;10921;53.614;9.882;2022-07-10T07:31:49;101914.97;;;19.02;51.55
21520;BME280;10921;53.614;9.882;2022-07-10T07:34:15;101906.69;;;19.03;51.20
21520;BME280;10921;53.614;9.882;2022-07-10T07:36:41;101916.34;;;19.06;50.19
21520;BME280;10921;53.614;9.882;2022-07-10T07:39:08;101918.03;;;19.07;49.26
21520;BME280;10921;53.614;9.882;2022-07-10T07:41:34;101913.47;;;19.07;49.26
21520;BME280;10921;53.614;9.882;2022-07-10T07:44:01;101910.75;;;18.99;49.14
21520;BME280;10921;53.614;9.882;2022-07-10T07:46:27;101918.00;;;18.98;49.08
21520;BME280;10921;53.614;9.882;2022-07-10T07:48:54;101914.97;;;19.02;48.82
21520;BME280;10921;53.614;9.882;2022-07-10T07:51:20;101909.22;;;19.05;48.07
21520;BME280;10921;53.614;9.882;2022-07-10T07:53:47;101907.50;;;19.12;49.33
21520;BME280;10921;53.614;9.882;2022-07-10T07:56:13;101902.59;;;19.23;48.12
21520;BME280;10921;53.614;9.882;2022-07-10T07:58:40;101897.63;;;19.43;49.00
21520;BME280;10921;53.614;9.882;2022-07-10T08:01:07;101905.06;;;19.57;48.58
21520;BME280;10921;53.614;9.882;2022-07-10T08:03:34;101911.66;;;19.63;48.80
21520;BME280;10921;53.614;9.882;2022-07-10T08:06:20;101928.34;;;19.83;48.75
21520;BME280;10921;53.614;9.882;2022-07-10T08:08:47;101917.97;;;19.86;48.55
21520;BME280;10921;53.614;9.882;2022-07-10T08:11:13;101914.25;;;19.87;49.16
21520;BME280;10921;53.614;9.882;2022-07-10T08:13:40;101928.44;;;19.89;48.70
21520;BME280;10921;53.614;9.882;2022-07-10T08:16:06;101911.53;;;19.87;48.74
21520;BME280;10921;53.614;9.882;2022-07-10T08:18:34;101921.91;;;19.84;48.09
21520;BME280;10921;53.614;9.882;2022-07-10T08:21:01;101925.13;;;19.79;48.57
21520;BME280;10921;53.614;9.882;2022-07-10T08:23:27;101924.13;;;19.72;47.46
21520;BME280;10921;53.614;9.882;2022-07-10T08:25:54;101889.81;;;19.64;47.52
21520;BME280;10921;53.614;9.882;2022-07-10T08:28:20;101908.13;;;19.54;47.77
21520;BME280;10921;53.614;9.882;2022-07-10T08:30:50;101902.38;;;19.49;47.18
21520;BME280;10921;53.614;9.882;2022-07-10T08:33:16;101906.94;;;19.49;48.06
21520;BME280;10921;53.614;9.882;2022-07-10T08:35:43;101897.81;;;19.50;48.81
21520;BME280;10921;53.614;9.882;2022-07-10T08:38:09;101898.09;;;19.63;48.53
21520;BME280;10921;53.614;9.882;2022-07-10T08:40:36;101905.84;;;19.74;48.27
21520;BME280;10921;53.614;9.882;2022-07-10T08:43:05;101895.81;;;19.83;47.71
21520;BME280;10921;53.614;9.882;2022-07-10T08:45:32;101913.91;;;19.90;48.21
21520;BME280;10921;53.614;9.882;2022-07-10T08:48:03;101895.44;;;19.94;48.27
21520;BME280;10921;53.614;9.882;2022-07-10T08:50:33;101896.09;;;19.96;47.68
21520;BME280;10921;53.614;9.882;2022-07-10T08:53:08;101898.41;;;20.07;48.21
21520;BME280;10921;53.614;9.882;2022-07-10T08:55:36;101900.22;;;20.15;46.72
21520;BME280;10921;53.614;9.882;2022-07-10T08:58:03;101911.50;;;20.26;46.52
21520;BME280;10921;53.614;9.882;2022-07-10T09:00:31;101918.53;;;20.35;45.67
21520;BME280;10921;53.614;9.882;2022-07-10T09:02:57;101902.63;;;20.41;45.74
21520;BME280;10921;53.614;9.882;2022-07-10T09:05:25;101907.34;;;20.47;45.16
21520;BME280;10921;53.614;9.882;2022-07-10T09:07:53;101906.78;;;20.51;45.37
21520;BME280;10921;53.614;9.882;2022-07-10T09:10:25;101900.63;;;20.57;46.42
21520;BME280;10921;53.614;9.882;2022-07-10T09:12:56;101910.19;;;20.68;46.47
21520;BME280;10921;53.614;9.882;2022-07-10T09:15:25;101902.47;;;20.80;45.89
21520;BME280;10921;53.614;9.882;2022-07-10T09:17:54;101906.53;;;20.98;45.16
21520;BME280;10921;53.614;9.882;2022-07-10T09:20:29;101897.38;;;21.22;43.75
21520;BME280;10921;53.614;9.882;2022-07-10T09:23:08;101896.91;;;21.48;43.93
21520;BME280;10921;53.614;9.882;2022-07-10T09:25:36;101884.81;;;21.65;42.08
21520;BME280;10921;53.614;9.882;2022-07-10T09:28:02;101893.50;;;21.75;40.88
21520;BME280;10921;53.614;9.882;2022-07-10T09:30:39;101890.75;;;21.90;40.58
21520;BME280;10921;53.614;9.882;2022-07-10T09:33:20;101897.88;;;22.06;40.49
21520;BME280;10921;53.614;9.882;2022-07-10T09:43:49;101895.09;;;22.63;40.51
21520;BME280;10921;53.614;9.882;2022-07-10T09:46:17;101902.75;;;22.74;40.83
21520;BME280;10921;53.614;9.882;2022-07-10T09:48:44;101907.06;;;22.84;39.20
21520;BME280;10921;53.614;9.882;2022-07-10T09:51:11;101902.91;;;22.88;39.16
21520;BME280;10921;53.614;9.882;2022-07-10T09:53:39;101897.91;;;22.91;39.36
21520;BME280;10921;53.614;9.882;2022-07-10T09:56:11;101904.25;;;22.98;38.37
21520;BME280;10921;53.614;9.882;2022-07-10T09:58:38;101913.53;;;23.10;37.76
21520;BME280;10921;53.614;9.882;2022-07-10T10:01:07;101909.38;;;23.14;36.96
21520;BME280;10921;53.614;9.882;2022-07-10T10:03:39;101909.00;;;23.18;37.37
21520;BME280;10921;53.614;9.882;2022-07-10T10:06:14;101902.31;;;23.20;38.53
21520;BME280;10921;53.614;9.882;2022-07-10T10:11:25;101907.06;;;23.11;37.51
21520;BME280;10921;53.614;9.882;2022-07-10T10:13:53;101910.44;;;23.13;38.07
21520;BME280;10921;53.614;9.882;2022-07-10T10:16:20;101906.66;;;23.14;38.36
21520;BME280;10921;53.614;9.882;2022-07-10T10:18:47;101907.66;;;23.07;37.05
21520;BME280;10921;53.614;9.882;2022-07-10T10:21:32;101911.28;;;23.14;37.04
21520;BME280;10921;53.614;9.882;2022-07-10T10:24:00;101901.66;;;23.18;36.45
21520;BME280;10921;53.614;9.882;2022-07-10T10:26:27;101900.06;;;23.30;37.83
21520;BME280;10921;53.614;9.882;2022-07-10T10:28:59;101890.75;;;23.46;38.10
21520;BME280;10921;53.614;9.882;2022-07-10T10:31:28;101902.75;;;23.52;36.55
21520;BME280;10921;53.614;9.882;2022-07-10T10:33:56;101906.16;;;23.60;36.66
21520;BME280;10921;53.614;9.882;2022-07-10T10:39:11;101908.06;;;23.38;37.27
21520;BME280;10921;53.614;9.882;2022-07-10T10:41:52;101901.09;;;23.29;37.20
21520;BME280;10921;53.614;9.882;2022-07-10T10:44:21;101898.78;;;23.26;37.25
21520;BME280;10921;53.614;9.882;2022-07-10T10:49:21;101892.94;;;23.29;37.42
21520;BME280;10921;53.614;9.882;2022-07-10T10:52:02;101909.28;;;23.29;36.85
21520;BME280;10921;53.614;9.882;2022-07-10T10:54:30;101906.81;;;23.34;38.09
21520;BME280;10921;53.614;9.882;2022-07-10T10:57:13;101892.16;;;23.35;36.22
21520;BME280;10921;53.614;9.882;2022-07-10T10:59:53;101899.69;;;23.40;36.73
21520;BME280;10921;53.614;9.882;2022-07-10T11:02:27;101906.00;;;23.40;36.60
21520;BME280;10921;53.614;9.882;2022-07-10T11:08:01;101906.00;;;23.75;36.62
21520;BME280;10921;53.614;9.882;2022-07-10T11:10:35;101895.50;;;23.72;35.54
21520;BME280;10921;53.614;9.882;2022-07-10T11:13:10;101900.97;;;23.72;36.55
21520;BME280;10921;53.614;9.882;2022-07-10T11:15:39;101904.00;;;23.56;37.48
21520;BME280;10921;53.614;9.882;2022-07-10T11:18:12;101910.75;;;23.60;38.79
21520;BME280;10921;53.614;9.882;2022-07-10T11:20:43;101904.25;;;23.61;37.70
21520;BME280;10921;53.614;9.882;2022-07-10T11:26:05;101905.03;;;23.89;36.61
21520;BME280;10921;53.614;9.882;2022-07-10T11:28:53;101904.25;;;24.15;36.55
21520;BME280;10921;53.614;9.882;2022-07-10T11:31:23;101912.22;;;24.10;35.80
21520;BME280;10921;53.614;9.882;2022-07-10T11:33:51;101893.94;;;24.04;35.92
21520;BME280;10921;53.614;9.882;2022-07-10T11:36:20;101904.38;;;23.80;35.79
21520;BME280;10921;53.614;9.882;2022-07-10T11:39:00;101905.75;;;23.70;37.07
21520;BME280;10921;53.614;9.882;2022-07-10T11:41:27;101905.06;;;23.55;36.40
21520;BME280;10921;53.614;9.882;2022-07-10T11:43:54;101917.72;;;23.41;36.24
21520;BME280;10921;53.614;9.882;2022-07-10T11:46:32;101903.44;;;23.32;36.83
21520;BME280;10921;53.614;9.882;2022-07-10T11:49:02;101898.84;;;23.33;36.93
21520;BME280;10921;53.614;9.882;2022-07-10T11:51:33;101908.50;;;23.35;37.42
21520;BME280;10921;53.614;9.882;2022-07-10T11:54:01;101900.41;;;23.48;37.47
21520;BME280;10921;53.614;9.882;2022-07-10T11:56:36;101902.19;;;23.69;37.75
21520;BME280;10921;53.614;9.882;2022-07-10T11:59:07;101898.91;;;23.80;36.57
21520;BME280;10921;53.614;9.882;2022-07-10T12:01:40;101908.84;;;24.01;36.84
21520;BME280;10921;53.614;9.882;2022-07-10T12:04:08;101909.88;;;24.00;36.86
21520;BME280;10921;53.614;9.882;2022-07-10T12:06:38;101905.91;;;24.03;36.64
21520;BME280;10921;53.614;9.882;2022-07-10T12:09:07;101909.03;;;23.93;37.45
21520;BME280;10921;53.614;9.882;2022-07-10T12:11:35;101910.22;;;23.84;37.76
21520;BME280;10921;53.614;9.882;2022-07-10T12:14:19;101918.44;;;23.91;37.37
21520;BME280;10921;53.614;9.882;2022-07-10T12:16:49;101905.38;;;23.73;37.38
21520;BME280;10921;53.614;9.882;2022-07-10T12:19:18;101916.59;;;23.57;38.16
21520;BME280;10921;53.614;9.882;2022-07-10T12:21:46;101924.19;;;23.33;39.01
21520;BME280;10921;53.614;9.882;2022-07-10T12:24:15;101903.38;;;23.26;39.03
21520;BME280;10921;53.614;9.882;2022-07-10T12:26:44;101911.66;;;23.11;38.36
21520;BME280;10921;53.614;9.882;2022-07-10T12:29:27;101887.81;;;23.13;39.67
21520;BME280;10921;53.614;9.882;2022-07-10T12:32:03;101913.03;;;23.28;40.59
21520;BME280;10921;53.614;9.882;2022-07-10T12:34:37;101912.94;;;23.43;39.64
21520;BME280;10921;53.614;9.882;2022-07-10T12:37:07;101913.28;;;23.61;39.87
21520;BME280;10921;53.614;9.882;2022-07-10T12:39:37;101915.63;;;23.71;39.39
21520;BME280;10921;53.614;9.882;2022-07-10T12:42:06;101923.44;;;23.80;39.63
21520;BME280;10921;53.614;9.882;2022-07-10T12:44:37;101925.97;;;23.82;39.10
21520;BME280;10921;53.614;9.882;2022-07-10T12:47:14;101926.38;;;23.85;38.38
21520;BME280;10921;53.614;9.882;2022-07-10T12:52:25;101923.16;;;23.69;38.65
21520;BME280;10921;53.614;9.882;2022-07-10T12:55:16;101924.19;;;23.61;38.53
21520;BME280;10921;53.614;9.882;2022-07-10T13:00:13;101932.09;;;23.28;37.95
21520;BME280;10921;53.614;9.882;2022-07-10T13:02:40;101936.16;;;23.11;38.69
21520;BME280;10921;53.614;9.882;2022-07-10T13:05:08;101927.97;;;23.04;39.42
21520;BME280;10921;53.614;9.882;2022-07-10T13:07:35;101935.47;;;23.02;38.97
21520;BME280;10921;53.614;9.882;2022-07-10T13:10:06;101926.84;;;22.99;38.53
21520;BME280;10921;53.614;9.882;2022-07-10T13:12:34;101938.97;;;22.96;39.24
21520;BME280;10921;53.614;9.882;2022-07-10T13:15:02;101944.63;;;22.95;38.98
21520;BME280;10921;53.614;9.882;2022-07-10T13:17:29;101938.41;;;22.79;38.93
21520;BME280;10921;53.614;9.882;2022-07-10T13:19:56;101949.41;;;22.71;39.35
21520;BME280;10921;53.614;9.882;2022-07-10T13:22:23;101942.72;;;22.53;40.04
21520;BME280;10921;53.614;9.882;2022-07-10T13:24:50;101931.06;;;22.37;40.04